.
WxDataArchive / Data Records for 2010-12-30
2010-12-29 December 2010 2010-12-31

Data Records for Thursday, 30 December 2010

Time	Temp	Chill	HIndex	Humid	Dewpt	 Wind 	HiWind	WindDir	Rain 	Barom 
-----	----	-----	------	-----	-----	------	------	-------	-----	----- 
00:00	35.5	35.5	35.5	89	32.6	0	2	112	0.00	29.945 
00:05	35.3	35.3	35.3	89	32.4	1	4	112	0.00	29.945 
00:10	35.3	35.3	35.3	89	32.4	1	3	112	0.00	29.945 
00:15	35.3	35.3	35.3	89	32.4	1	2	135	0.00	29.942 
00:20	35.3	35.3	35.3	89	32.4	1	2	112	0.00	29.942 
00:25	35.3	35.3	35.3	90	32.7	0	2	112	0.00	29.942 
00:30	35.3	35.3	35.3	90	32.7	1	2	112	0.00	29.942 
00:35	35.5	35.5	35.5	90	32.9	1	4	112	0.00	29.942 
00:40	35.5	35.5	35.5	90	32.9	0	2	90	0.00	29.942 
00:45	35.5	35.5	35.5	90	32.9	1	3	90	0.00	29.950 
00:50	35.5	35.5	35.5	90	32.9	1	4	90	0.00	29.950 
00:55	35.5	35.5	35.5	90	32.9	0	2	90	0.00	29.950 
01:00	35.5	35.5	35.5	90	32.9	1	5	90	0.00	29.943 
01:05	35.6	35.6	35.6	90	33.0	2	4	112	0.00	29.943 
01:10	35.6	35.6	35.6	91	33.2	1	5	68	0.00	29.943 
01:15	35.6	35.6	35.6	91	33.2	2	4	90	0.00	29.935 
01:20	35.6	35.6	35.6	91	33.2	2	4	90	0.00	29.935 
01:25	35.6	35.6	35.6	91	33.2	1	5	90	0.00	29.935 
01:30	35.6	35.6	35.6	91	33.2	1	4	90	0.00	29.930 
01:35	35.6	35.6	35.6	91	33.2	0	2	112	0.00	29.930 
01:40	35.5	35.5	35.5	91	33.1	1	3	135	0.00	29.930 
01:45	35.5	35.5	35.5	91	33.1	1	3	90	0.00	29.937 
01:50	35.5	35.5	35.5	91	33.1	2	6	90	0.00	29.937 
01:55	35.5	35.5	35.5	91	33.1	0	3	90	0.00	29.937 
02:00	35.5	35.5	35.5	91	33.1	1	3	90	0.00	29.931 
02:05	35.5	35.5	35.5	91	33.1	1	2	90	0.00	29.931 
02:10	35.5	35.5	35.5	91	33.1	0	2	90	0.00	29.931 
02:15	35.5	35.5	35.5	91	33.1	0	2	90	0.00	29.943 
02:20	35.5	35.5	35.5	92	33.4	2	4	90	0.00	29.943 
02:25	35.6	35.6	35.6	92	33.5	0	3	90	0.00	29.943 
02:30	35.6	35.6	35.6	92	33.5	1	3	90	0.00	29.950 
02:35	35.8	35.8	35.8	92	33.7	1	5	90	0.00	29.950 
02:40	35.8	35.8	35.8	92	33.7	1	3	90	0.00	29.950 
02:45	35.9	35.9	35.9	92	33.8	1	3	90	0.00	29.952 
02:50	35.9	35.9	35.9	92	33.8	0	3	90	0.00	29.952 
02:55	35.9	35.9	35.9	92	33.8	1	5	90	0.00	29.952 
03:00	36.0	36.0	36.0	92	33.9	1	4	90	0.00	29.949 
03:05	36.0	36.0	36.0	92	33.9	1	3	112	0.00	29.949 
03:10	36.2	36.2	36.2	92	34.1	1	5	90	0.00	29.949 
03:15	36.2	36.2	36.2	92	34.1	2	4	112	0.00	29.945 
03:20	36.0	36.0	36.0	92	33.9	1	3	90	0.01	29.945 
03:25	36.0	36.0	36.0	92	33.9	1	3	112	0.00	29.945 
03:30	36.0	36.0	36.0	92	33.9	1	3	135	0.00	29.941 
03:35	35.9	35.9	35.9	92	33.8	1	4	112	0.00	29.941 
03:40	35.8	35.8	35.8	92	33.7	0	3	135	0.00	29.941 
03:45	35.8	35.8	35.8	92	33.7	1	3	112	0.00	29.940 
03:50	35.8	35.8	35.8	92	33.7	1	3	90	0.00	29.940 
03:55	35.8	35.8	35.8	92	33.7	1	3	112	0.00	29.940 
04:00	35.6	35.6	35.6	92	33.5	0	2	135	0.00	29.935 
04:05	35.5	35.5	35.5	92	33.4	1	3	135	0.00	29.935 
04:10	35.5	35.5	35.5	92	33.4	1	3	135	0.00	29.935 
04:15	35.5	35.5	35.5	92	33.4	0	2	90	0.00	29.938 
04:20	35.5	35.5	35.5	92	33.4	1	2	112	0.00	29.938 
04:25	35.5	35.5	35.5	93	33.7	0	2	90	0.00	29.938 
04:30	35.5	35.5	35.5	93	33.7	1	3	90	0.00	29.938 
04:35	35.6	35.6	35.6	93	33.8	1	2	112	0.00	29.938 
04:40	35.6	35.6	35.6	93	33.8	0	2	90	0.00	29.938 
04:45	35.6	35.6	35.6	93	33.8	0	2	90	0.01	29.938 
04:50	35.6	35.6	35.6	93	33.8	1	2	112	0.00	29.938 
04:55	35.8	35.8	35.8	93	34.0	1	3	112	0.00	29.938 
05:00	35.8	35.8	35.8	93	34.0	1	2	112	0.00	29.936 
05:05	35.8	35.8	35.8	93	34.0	1	2	90	0.00	29.936 
05:10	35.8	35.8	35.8	93	34.0	0	3	135	0.00	29.936 
05:15	35.8	35.8	35.8	93	34.0	0	3	135	0.00	29.943 
05:20	35.9	35.9	35.9	93	34.1	1	2	112	0.00	29.943 
05:25	35.9	35.9	35.9	93	34.1	0	2	112	0.00	29.943 
05:30	35.9	35.9	35.9	93	34.1	0	2	112	0.00	29.947 
05:35	36.0	36.0	36.0	94	34.4	0	2	68	0.01	29.947 
05:40	36.0	36.0	36.0	94	34.4	0	3	135	0.00	29.947 
05:45	36.2	36.2	36.2	94	34.6	0	3	135	0.00	29.941 
05:50	36.2	36.2	36.2	94	34.6	1	3	135	0.00	29.941 
05:55	36.3	36.3	36.3	94	34.7	1	4	135	0.00	29.941 
06:00	36.5	36.5	36.5	94	34.9	1	3	112	0.01	29.940 
06:05	36.8	36.8	36.8	94	35.2	1	5	68	0.00	29.940 
06:10	36.8	36.8	36.8	94	35.2	1	5	90	0.00	29.940 
06:15	36.9	36.9	36.9	94	35.3	1	5	112	0.00	29.940 
06:20	36.9	36.9	36.9	94	35.3	1	4	90	0.00	29.940 
06:25	36.9	36.9	36.9	94	35.3	1	3	90	0.00	29.940 
06:30	36.9	36.9	36.9	94	35.3	1	4	90	0.00	29.944 
06:35	36.9	36.9	36.9	94	35.3	1	4	158	0.00	29.944 
06:40	36.9	36.9	36.9	94	35.3	1	5	112	0.00	29.944 
06:45	36.9	36.9	36.9	94	35.3	1	4	90	0.00	29.945 
06:50	36.9	36.9	36.9	95	35.6	1	3	90	0.00	29.945 
06:55	36.9	36.9	36.9	95	35.6	1	3	90	0.00	29.945 
07:00	37.0	37.0	37.0	95	35.7	2	6	90	0.00	29.953 
07:05	37.2	37.2	37.2	95	35.9	1	4	112	0.00	29.953 
07:10	37.2	37.2	37.2	95	35.9	1	4	112	0.00	29.953 
07:15	37.2	37.2	37.2	95	35.9	1	4	90	0.00	29.953 
07:20	37.2	37.2	37.2	95	35.9	1	4	90	0.00	29.953 
07:25	37.3	37.3	37.3	95	36.0	1	6	90	0.00	29.953 
07:30	37.3	37.3	37.3	95	36.0	1	3	45	0.01	29.953 
07:35	37.3	37.3	37.3	95	36.0	1	4	90	0.00	29.953 
07:40	37.3	37.3	37.3	95	36.0	1	5	90	0.00	29.953 
07:45	37.5	37.5	37.5	95	36.2	2	7	90	0.00	29.952 
07:50	37.5	37.5	37.5	95	36.2	1	3	90	0.00	29.952 
07:55	37.5	37.5	37.5	95	36.2	1	4	90	0.00	29.952 
08:00	37.5	37.5	37.5	95	36.2	1	3	90	0.00	29.952 
08:05	37.5	37.5	37.5	95	36.2	1	3	90	0.00	29.952 
08:10	37.6	37.6	37.6	95	36.3	1	5	90	0.01	29.952 
08:15	37.6	37.6	37.6	95	36.3	1	3	90	0.00	29.950 
08:20	37.6	37.6	37.6	95	36.3	1	4	90	0.00	29.950 
08:25	37.6	37.6	37.6	95	36.3	1	5	112	0.00	29.950 
08:30	37.6	37.6	37.6	95	36.3	1	5	90	0.00	29.949 
08:35	37.6	37.6	37.6	95	36.3	1	4	68	0.00	29.949 
08:40	37.8	37.8	37.8	95	36.5	1	4	112	0.00	29.949 
08:45	37.8	37.8	37.8	95	36.5	2	4	112	0.00	29.948 
08:50	37.8	37.8	37.8	95	36.5	3	6	90	0.00	29.948 
08:55	37.9	37.9	37.9	95	36.6	1	7	90	0.00	29.948 
09:00	37.9	37.9	37.9	95	36.6	1	3	112	0.00	29.949 
09:05	37.9	37.9	37.9	95	36.6	1	4	112	0.00	29.949 
09:10	37.9	37.9	37.9	95	36.6	2	5	90	0.00	29.949 
09:15	38.0	38.0	38.0	95	36.7	2	6	90	0.00	29.948 
09:20	38.0	38.0	38.0	94	36.4	1	3	90	0.00	29.948 
09:25	38.0	38.0	38.0	94	36.4	2	5	90	0.00	29.948 
09:30	38.2	38.2	38.2	94	36.6	1	6	68	0.00	29.950 
09:35	38.2	38.2	38.2	94	36.6	1	5	90	0.00	29.950 
09:40	38.2	38.2	38.2	94	36.6	1	4	90	0.00	29.950 
09:45	38.3	38.3	38.3	94	36.7	1	4	90	0.00	29.950 
09:50	38.3	38.3	38.3	94	36.7	1	4	90	0.00	29.950 
09:55	38.3	38.3	38.3	94	36.7	1	3	135	0.00	29.950 
10:00	38.5	38.5	38.5	94	36.9	2	5	112	0.00	29.949 
10:05	38.6	38.6	38.6	94	37.0	1	3	90	0.00	29.949 
10:10	38.8	38.8	38.8	94	37.2	1	5	90	0.00	29.949 
10:15	38.8	38.8	38.8	94	37.2	2	9	90	0.00	29.947 
10:20	39.1	39.1	39.1	94	37.5	1	5	135	0.00	29.947 
10:25	39.2	39.2	39.2	94	37.6	1	3	90	0.00	29.947 
10:30	39.2	39.2	39.2	94	37.6	2	6	112	0.00	29.949 
10:35	39.3	39.3	39.3	93	37.4	2	5	90	0.00	29.949 
10:40	39.5	39.5	39.5	93	37.6	1	5	90	0.00	29.949 
10:45	39.6	39.6	39.6	93	37.7	2	5	90	0.00	29.947 
10:50	39.8	39.8	39.8	93	37.9	2	6	90	0.00	29.947 
10:55	39.9	39.9	39.9	93	38.0	3	7	90	0.00	29.947 
11:00	40.1	40.1	40.1	93	38.2	3	7	90	0.00	29.942 
11:05	40.3	40.3	40.3	92	38.2	2	5	90	0.00	29.942 
11:10	40.3	40.3	40.3	92	38.2	2	6	90	0.00	29.942 
11:15	40.5	40.5	40.5	92	38.4	1	3	68	0.00	29.934 
11:20	40.8	40.8	40.8	92	38.7	2	10	90	0.00	29.934 
11:25	41.1	41.1	41.1	92	39.0	2	5	90	0.00	29.934 
11:30	41.3	41.3	41.3	92	39.2	2	6	68	0.01	29.926 
11:35	41.3	41.3	41.3	91	38.9	3	10	90	0.00	29.926 
11:40	41.5	41.5	41.5	91	39.1	2	6	90	0.00	29.926 
11:45	41.5	41.5	41.5	91	39.1	1	5	68	0.00	29.917 
11:50	41.5	41.5	41.5	91	39.1	2	7	90	0.00	29.917 
11:55	41.6	41.6	41.6	91	39.2	2	7	112	0.00	29.917 
12:00	41.8	41.8	41.8	90	39.1	1	5	292	0.00	29.910 
12:05	41.8	41.8	41.8	90	39.1	2	5	90	0.00	29.910 
12:10	42.1	42.1	42.1	90	39.4	2	5	90	0.00	29.910 
12:15	42.2	42.2	42.2	90	39.5	1	5	90	0.00	29.903 
12:20	42.3	42.3	42.3	90	39.6	2	4	112	0.00	29.903 
12:25	42.5	42.5	42.5	89	39.5	2	4	90	0.00	29.903 
12:30	42.6	42.6	42.6	89	39.6	1	5	90	0.00	29.899 
12:35	42.6	42.6	42.6	89	39.6	1	4	90	0.00	29.899 
12:40	42.8	42.8	42.8	89	39.8	2	6	90	0.00	29.899 
12:45	42.8	42.8	42.8	88	39.5	2	9	90	0.00	29.893 
12:50	42.9	42.9	42.9	88	39.6	2	6	90	0.00	29.893 
12:55	42.9	42.9	42.9	88	39.6	2	5	112	0.00	29.893 
13:00	43.2	43.2	43.2	88	39.9	2	5	270	0.00	29.884 
13:05	43.5	43.5	43.5	88	40.2	2	4	112	0.00	29.884 
13:10	43.6	43.6	43.6	88	40.3	2	5	90	0.00	29.884 
13:15	43.9	43.9	43.9	88	40.6	2	4	90	0.00	29.880 
13:20	44.2	44.2	44.2	88	40.9	2	5	112	0.00	29.880 
13:25	44.5	44.5	44.5	88	41.2	1	3	248	0.00	29.880 
13:30	44.6	44.6	44.6	87	41.0	2	6	248	0.00	29.882 
13:35	44.8	44.8	44.8	86	40.9	2	4	45	0.00	29.882 
13:40	44.8	44.8	44.8	86	40.9	1	7	225	0.00	29.882 
13:45	44.8	44.8	44.8	86	40.9	2	6	90	0.00	29.880 
13:50	44.8	44.8	44.8	85	40.6	1	6	68	0.00	29.880 
13:55	44.8	44.8	44.8	85	40.6	2	9	90	0.00	29.880 
14:00	44.8	44.8	44.8	85	40.6	1	3	112	0.00	29.869 
14:05	44.9	44.9	44.9	85	40.7	1	4	112	0.00	29.869 
14:10	44.9	44.9	44.9	85	40.7	1	5	68	0.00	29.869 
14:15	45.2	45.2	45.2	84	40.7	2	5	90	0.00	29.860 
14:20	45.5	45.5	45.5	84	41.0	1	5	112	0.00	29.860 
14:25	45.7	45.7	45.7	83	40.8	2	6	90	0.00	29.860 
14:30	45.7	45.7	45.7	83	40.8	2	5	90	0.00	29.859 
14:35	45.7	45.7	45.7	83	40.8	1	4	90	0.00	29.859 
14:40	45.7	45.7	45.7	83	40.8	1	4	112	0.00	29.859 
14:45	45.7	45.7	45.7	83	40.8	1	4	90	0.00	29.860 
14:50	45.8	45.8	45.8	83	40.9	1	4	248	0.00	29.860 
14:55	46.0	46.0	46.0	83	41.1	1	7	45	0.00	29.860 
15:00	46.0	46.0	46.0	83	41.1	1	4	68	0.00	29.864 
15:05	46.0	46.0	46.0	83	41.1	1	5	90	0.00	29.864 
15:10	46.1	46.1	46.1	83	41.2	1	6	90	0.00	29.864 
15:15	46.4	46.4	46.4	83	41.5	2	6	90	0.00	29.857 
15:20	46.7	46.7	46.7	82	41.5	1	6	90	0.00	29.857 
15:25	46.7	46.7	46.7	81	41.2	1	6	112	0.00	29.857 
15:30	46.5	46.5	46.5	81	41.0	1	3	112	0.00	29.859 
15:35	46.4	46.4	46.4	81	40.9	2	5	315	0.00	29.859 
15:40	46.2	46.2	46.2	81	40.7	2	6	68	0.00	29.859 
15:45	46.4	46.4	46.4	81	40.9	2	4	112	0.00	29.852 
15:50	46.4	46.4	46.4	81	40.9	1	3	112	0.00	29.852 
15:55	46.2	46.2	46.2	81	40.7	1	4	90	0.00	29.852 
16:00	46.2	46.2	46.2	81	40.7	1	4	225	0.00	29.861 
16:05	46.1	46.1	46.1	80	40.3	2	4	112	0.00	29.861 
16:10	46.1	46.1	46.1	80	40.3	1	7	90	0.00	29.861 
16:15	46.1	46.1	46.1	80	40.3	1	4	90	0.00	29.854 
16:20	46.1	46.1	46.1	80	40.3	1	3	112	0.00	29.854 
16:25	46.1	46.1	46.1	79	40.0	1	4	90	0.00	29.854 
16:30	46.1	46.1	46.1	80	40.3	0	1	90	0.00	29.863 
16:35	46.0	46.0	46.0	80	40.2	1	3	135	0.00	29.863 
16:40	46.0	46.0	46.0	80	40.2	1	3	112	0.00	29.863 
16:45	45.8	45.8	45.8	80	40.0	2	5	135	0.00	29.859 
16:50	45.8	45.8	45.8	80	40.0	2	4	112	0.00	29.859 
16:55	45.7	45.7	45.7	80	39.9	1	4	112	0.00	29.859 
17:00	45.5	45.5	45.5	80	39.7	1	2	112	0.00	29.859 
17:05	45.4	45.4	45.4	80	39.6	0	2	112	0.00	29.859 
17:10	45.2	45.2	45.2	81	39.7	0	2	112	0.00	29.859 
17:15	45.1	45.1	45.1	81	39.6	0	2	112	0.00	29.855 
17:20	44.8	44.8	44.8	81	39.3	1	3	135	0.00	29.855 
17:25	44.8	44.8	44.8	81	39.3	1	3	135	0.00	29.855 
17:30	44.6	44.6	44.6	81	39.1	1	2	68	0.00	29.856 
17:35	44.5	44.5	44.5	81	39.0	1	2	135	0.00	29.856 
17:40	44.2	44.2	44.2	82	39.1	0	1	112	0.00	29.856 
17:45	43.9	43.9	43.9	82	38.8	0	1	112	0.00	29.858 
17:50	43.3	43.3	43.3	82	38.2	0	0	---	0.00	29.858 
17:55	43.1	43.1	43.1	83	38.3	0	1	112	0.00	29.858 
18:00	42.8	42.8	42.8	84	38.3	0	0	---	0.00	29.857 
18:05	42.5	42.5	42.5	84	38.0	0	2	112	0.00	29.857 
18:10	42.2	42.2	42.2	85	38.0	0	2	112	0.00	29.857 
18:15	42.1	42.1	42.1	85	37.9	0	0	---	0.00	29.868 
18:20	41.8	41.8	41.8	85	37.6	0	1	112	0.00	29.868 
18:25	41.6	41.6	41.6	86	37.7	0	1	112	0.00	29.868 
18:30	41.5	41.5	41.5	86	37.6	0	1	112	0.00	29.877 
18:35	41.3	41.3	41.3	87	37.7	0	1	112	0.00	29.877 
18:40	41.5	41.5	41.5	87	37.9	0	2	112	0.00	29.877 
18:45	41.5	41.5	41.5	87	37.9	1	3	135	0.00	29.873 
18:50	41.6	41.6	41.6	87	38.0	1	3	135	0.00	29.873 
18:55	41.8	41.8	41.8	87	38.2	1	3	90	0.00	29.873 
19:00	41.9	41.9	41.9	87	38.3	0	3	68	0.00	29.874 
19:05	41.9	41.9	41.9	86	38.0	1	2	68	0.00	29.874 
19:10	41.9	41.9	41.9	86	38.0	1	3	135	0.00	29.874 
19:15	41.9	41.9	41.9	86	38.0	0	3	112	0.00	29.880 
19:20	41.9	41.9	41.9	86	38.0	1	3	135	0.00	29.880 
19:25	41.9	41.9	41.9	86	38.0	0	2	135	0.00	29.880 
19:30	42.1	42.1	42.1	86	38.2	1	3	90	0.00	29.881 
19:35	42.2	42.2	42.2	86	38.3	1	4	90	0.00	29.881 
19:40	42.3	42.3	42.3	86	38.4	2	4	90	0.00	29.881 
19:45	42.6	42.6	42.6	85	38.4	2	5	112	0.00	29.880 
19:50	42.8	42.8	42.8	85	38.6	1	4	112	0.00	29.880 
19:55	43.1	43.1	43.1	84	38.6	2	5	90	0.00	29.880 
20:00	43.2	43.2	43.2	84	38.7	2	6	90	0.00	29.867 
20:05	43.3	43.3	43.3	84	38.8	2	6	90	0.00	29.867 
20:10	43.5	43.5	43.5	83	38.7	2	7	90	0.00	29.867 
20:15	43.5	43.5	43.5	83	38.7	2	6	112	0.00	29.863 
20:20	43.6	43.6	43.6	83	38.8	2	6	90	0.00	29.863 
20:25	43.6	41.5	43.6	83	38.8	4	12	112	0.00	29.863 
20:30	43.8	43.8	43.8	82	38.7	2	6	90	0.00	29.850 
20:35	43.6	43.6	43.6	82	38.5	2	4	112	0.00	29.850 
20:40	43.6	43.6	43.6	82	38.5	2	5	90	0.00	29.850 
20:45	43.5	43.5	43.5	82	38.4	2	6	112	0.00	29.853 
20:50	43.5	43.5	43.5	82	38.4	1	5	90	0.00	29.853 
20:55	43.3	43.3	43.3	83	38.5	1	4	112	0.00	29.853 
21:00	43.3	43.3	43.3	83	38.5	2	6	90	0.00	29.857 
21:05	43.3	43.3	43.3	83	38.5	2	4	112	0.00	29.857 
21:10	43.3	43.3	43.3	83	38.5	2	7	90	0.00	29.857 
21:15	43.5	43.5	43.5	82	38.4	2	4	90	0.00	29.847 
21:20	43.6	43.6	43.6	82	38.5	1	3	112	0.00	29.847 
21:25	43.8	43.8	43.8	82	38.7	2	7	90	0.00	29.847 
21:30	43.9	43.9	43.9	82	38.8	1	5	90	0.00	29.847 
21:35	44.2	44.2	44.2	81	38.7	2	6	90	0.00	29.847 
21:40	44.5	44.5	44.5	81	39.0	2	6	90	0.00	29.847 
21:45	44.5	44.5	44.5	80	38.7	2	11	90	0.00	29.847 
21:50	44.8	44.8	44.8	79	38.7	3	10	90	0.00	29.847 
21:55	44.9	44.9	44.9	79	38.8	2	4	90	0.00	29.847 
22:00	44.9	44.9	44.9	79	38.8	2	5	90	0.00	29.850 
22:05	44.9	44.9	44.9	79	38.8	2	7	90	0.00	29.850 
22:10	44.9	44.9	44.9	79	38.8	2	6	90	0.00	29.850 
22:15	44.9	44.9	44.9	78	38.5	2	6	112	0.00	29.844 
22:20	44.9	44.9	44.9	78	38.5	2	6	112	0.00	29.844 
22:25	44.9	44.9	44.9	78	38.5	1	4	90	0.00	29.844 
22:30	44.9	44.9	44.9	78	38.5	1	4	112	0.00	29.847 
22:35	44.9	44.9	44.9	78	38.5	1	4	90	0.00	29.847 
22:40	44.9	44.9	44.9	78	38.5	2	6	90	0.00	29.847 
22:45	45.2	45.2	45.2	78	38.8	2	5	90	0.00	29.848 
22:50	45.2	45.2	45.2	77	38.4	1	6	90	0.00	29.848 
22:55	45.2	45.2	45.2	78	38.8	1	5	248	0.00	29.848 
23:00	45.2	45.2	45.2	77	38.4	1	5	315	0.00	29.858 
23:05	45.2	45.2	45.2	78	38.8	1	5	292	0.00	29.858 
23:10	45.2	45.2	45.2	78	38.8	1	3	270	0.00	29.858 
23:15	45.4	45.4	45.4	78	38.9	1	5	90	0.00	29.857 
23:20	45.5	45.5	45.5	78	39.0	1	5	248	0.00	29.857 
23:25	45.7	45.7	45.7	77	38.9	1	4	248	0.00	29.857 
23:30	45.7	45.7	45.7	77	38.9	1	9	90	0.00	29.852 
23:35	45.8	45.8	45.8	77	39.0	1	4	68	0.00	29.852 
23:40	45.8	45.8	45.8	77	39.0	1	3	68	0.00	29.852 
23:45	46.0	46.0	46.0	76	38.9	1	3	0	0.00	29.850 
23:50	46.1	46.1	46.1	76	39.0	1	4	112	0.00	29.850 
23:55	46.2	46.2	46.2	76	39.1	1	3	0	0.00	29.850 

CoCoRaHS
IN-AL-39
A2 Web Hosting
Creative Commons License
GoDaddy
search engine by freefind advanced

loaded 2018-11-18 12:09:07 • last modified 2010-11-18 10:43:29
Privacy PolicyDisclaimer
• wx.awcolley.com is powered by PmWiki v.2002016 •
• all content (unless otherwise noted) © 2018 A W Colley